Time;durP1;ratioP1;P1;durP2;ratioP2;P2;SDS_P1;SDS_P2;PMS_P1;PMS_P2;Temp;Humidity;BMP_temperature;BMP_pressure;BME280_temperature;BME280_humidity;BME280_pressure;Samples;Min_cycle;Max_cycle;Signal;HPM_P1;HPM_P2
2023/03/14 00:00:54;;;;;;;5.83;1.60;;;11.90;99.90;;;;;;5030376;28;20268;-62
2023/03/14 00:03:19;;;;;;;4.83;2.30;;;11.70;99.90;;;;;;5031235;28;20021;-62
2023/03/14 00:05:45;;;;;;;3.07;1.77;;;11.80;99.90;;;;;;5032208;28;20064;-64
2023/03/14 00:08:11;;;;;;;3.27;1.93;;;11.90;99.90;;;;;;5032584;28;20521;-64
2023/03/14 00:10:37;;;;;;;4.07;1.40;;;11.80;99.90;;;;;;5031235;28;20037;-64
2023/03/14 00:13:03;;;;;;;6.50;1.40;;;11.70;99.90;;;;;;5030809;28;20108;-63
2023/03/14 00:15:28;;;;;;;5.07;1.00;;;11.50;99.90;;;;;;5029350;28;20465;-64
2023/03/14 00:17:54;;;;;;;3.70;1.30;;;11.60;99.90;;;;;;5031666;28;20378;-64
2023/03/14 00:20:20;;;;;;;2.53;1.27;;;11.60;99.90;;;;;;5030174;28;20021;-65
2023/03/14 00:22:45;;;;;;;3.80;1.60;;;11.60;99.90;;;;;;5034718;28;20025;-62
2023/03/14 00:25:12;;;;;;;2.63;1.30;;;11.40;99.90;;;;;;5029035;28;20029;-63
2023/03/14 00:27:38;;;;;;;;;;;11.40;99.90;;;;;;5027129;28;20113;-62
2023/03/14 00:30:05;;;;;;;4.50;1.83;;;11.50;99.90;;;;;;5033246;28;19999;-65
2023/03/14 00:32:30;;;;;;;3.65;0.70;;;11.40;99.90;;;;;;5029398;28;20025;-63
2023/03/14 00:34:56;;;;;;;0.80;0.70;;;11.40;99.90;;;;;;5030527;28;20418;-62
2023/03/14 00:37:22;;;;;;;1.53;0.70;;;11.50;99.90;;;;;;5030892;28;20103;-63
2023/03/14 00:39:47;;;;;;;2.58;0.80;;;11.50;99.90;;;;;;5030929;28;20025;-63
2023/03/14 00:42:13;;;;;;;1.47;0.60;;;11.60;99.90;;;;;;5029894;28;20037;-63
2023/03/14 00:44:39;;;;;;;1.30;0.60;;;11.50;99.90;;;;;;5031108;28;20384;-64
2023/03/14 00:47:04;;;;;;;2.80;0.80;;;11.50;99.90;;;;;;5031745;28;20283;-62
2023/03/14 00:49:30;;;;;;;3.07;0.50;;;11.50;99.90;;;;;;5030345;28;20025;-62
2023/03/14 00:51:56;;;;;;;1.63;0.50;;;11.60;99.90;;;;;;5033413;28;20090;-62
2023/03/14 00:54:21;;;;;;;3.83;1.13;;;11.60;99.90;;;;;;5030000;28;20034;-63
2023/03/14 00:56:47;;;;;;;0.70;0.50;;;11.70;99.90;;;;;;5031350;28;20064;-63
2023/03/14 00:59:13;;;;;;;1.25;0.77;;;11.70;99.90;;;;;;5031832;28;20029;-63
2023/03/14 01:01:40;;;;;;;2.03;1.02;;;11.50;99.90;;;;;;5032937;28;20037;-62
2023/03/14 01:04:05;;;;;;;;;;;11.60;99.90;;;;;;5030318;28;20018;-62
2023/03/14 01:06:31;;;;;;;2.42;0.82;;;11.70;99.90;;;;;;5029179;28;19916;-63
2023/03/14 01:08:57;;;;;;;1.13;0.70;;;11.60;99.90;;;;;;5030022;28;20442;-62
2023/03/14 01:11:42;;;;;;;1.63;0.73;;;11.60;99.90;;;;;;5032796;28;20055;-62
2023/03/14 01:14:07;;;;;;;1.08;0.70;;;11.60;99.90;;;;;;5029090;28;20029;-63
2023/03/14 01:16:35;;;;;;;1.60;0.60;;;11.60;99.90;;;;;;5028295;28;20552;-64
2023/03/14 01:19:01;;;;;;;1.05;0.50;;;11.40;99.90;;;;;;5028886;28;20029;-65
2023/03/14 01:21:30;;;;;;;2.85;0.60;;;11.40;99.90;;;;;;5030358;28;20090;-64
2023/03/14 01:23:57;;;;;;;2.90;0.68;;;11.40;99.90;;;;;;5030743;28;20404;-64
2023/03/14 01:26:25;;;;;;;0.60;0.60;;;11.50;99.90;;;;;;5027887;28;20021;-63
2023/03/14 01:28:54;;;;;;;1.23;0.70;;;11.60;99.90;;;;;;5029449;28;20394;-64
2023/03/14 01:31:19;;;;;;;1.83;1.00;;;11.50;99.90;;;;;;5027310;28;20060;-64
2023/03/14 01:33:45;;;;;;;3.43;0.80;;;11.40;99.90;;;;;;5028742;28;20025;-64
2023/03/14 01:36:12;;;;;;;1.45;0.75;;;11.50;99.90;;;;;;5029599;28;20072;-64
2023/03/14 01:38:39;;;;;;;1.90;0.80;;;11.50;99.90;;;;;;5030462;28;20056;-64
2023/03/14 01:41:06;;;;;;;1.33;0.80;;;11.50;99.90;;;;;;5027394;28;20041;-65
2023/03/14 01:43:31;;;;;;;;;;;11.50;99.90;;;;;;5032943;28;20505;-64
2023/03/14 01:46:06;;;;;;;5.45;0.70;;;11.60;99.90;;;;;;5030135;28;19928;-64
2023/03/14 01:48:43;;;;;;;0.55;0.45;;;11.50;99.90;;;;;;5027843;28;20497;-64
2023/03/14 01:51:12;;;;;;;7.60;0.60;;;11.50;99.90;;;;;;5029894;28;20025;-64
2023/03/14 01:53:40;;;;;;;1.63;0.57;;;11.60;99.90;;;;;;5026991;28;20069;-65
2023/03/14 01:56:09;;;;;;;4.53;0.90;;;11.50;99.90;;;;;;5029656;28;20128;-61
2023/03/14 01:58:35;;;;;;;3.05;0.75;;;11.40;99.90;;;;;;5027804;28;20021;-63
2023/03/14 02:01:01;;;;;;;4.78;0.80;;;11.40;99.90;;;;;;5029477;28;20052;-62
2023/03/14 02:03:30;;;;;;;0.70;0.60;;;11.40;99.90;;;;;;5026818;28;20033;-64
2023/03/14 02:06:00;;;;;;;1.45;0.68;;;11.50;99.90;;;;;;5033630;28;20029;-62
2023/03/14 02:08:27;;;;;;;0.75;0.50;;;11.50;99.90;;;;;;5028033;28;20017;-61
2023/03/14 02:10:53;;;;;;;0.30;0.30;;;11.60;99.90;;;;;;5030874;28;20025;-63
2023/03/14 02:13:21;;;;;;;3.13;0.67;;;11.60;99.90;;;;;;5026898;28;20033;-62
2023/03/14 02:15:47;;;;;;;1.33;0.50;;;11.60;99.90;;;;;;5031142;28;20044;-62
2023/03/14 02:18:14;;;;;;;0.50;0.40;;;11.60;99.90;;;;;;5031811;28;20029;-63
2023/03/14 02:20:52;;;;;;;0.40;0.40;;;11.60;99.90;;;;;;5025860;28;20090;-64
2023/03/14 02:23:37;;;;;;;0.30;0.30;;;11.60;99.90;;;;;;5026559;28;20186;-64
2023/03/14 02:26:15;;;;;;;2.28;0.50;;;11.50;99.90;;;;;;5032346;28;20498;-64
2023/03/14 02:28:41;;;;;;;1.38;0.60;;;11.50;99.90;;;;;;5029204;28;20025;-64
2023/03/14 02:31:08;;;;;;;0.60;0.50;;;11.50;99.90;;;;;;5027470;28;20025;-64
2023/03/14 02:33:37;;;;;;;1.85;0.52;;;11.50;99.90;;;;;;5027547;28;20557;-61
2023/03/14 02:36:07;;;;;;;0.60;0.40;;;11.70;99.90;;;;;;5026366;28;20033;-63
2023/03/14 02:38:58;;;;;;;2.05;0.40;;;11.60;99.90;;;;;;5027454;28;20493;-63
2023/03/14 02:41:23;;;;;;;0.40;0.40;;;11.60;99.90;;;;;;5053630;28;20037;-64
2023/03/14 02:43:49;;;;;;;1.50;0.40;;;11.60;99.90;;;;;;5029314;28;20030;-62
2023/03/14 02:46:19;;;;;;;0.50;0.40;;;11.60;99.90;;;;;;5028804;28;20083;-64
2023/03/14 02:48:51;;;;;;;1.13;0.70;;;11.60;99.90;;;;;;5033735;28;20033;-64
2023/03/14 02:51:17;;;;;;;3.15;0.60;;;11.60;99.90;;;;;;5027442;28;20033;-62
2023/03/14 02:53:43;;;;;;;1.30;0.70;;;11.60;99.90;;;;;;5027760;28;20025;-64
2023/03/14 02:56:09;;;;;;;4.03;0.60;;;11.50;99.90;;;;;;5030863;28;20102;-62
2023/03/14 02:58:34;;;;;;;5.00;0.68;;;11.50;99.90;;;;;;5026795;28;20045;-63
2023/03/14 03:01:00;;;;;;;1.67;0.73;;;11.60;99.90;;;;;;5026592;28;20060;-64
2023/03/14 03:03:26;;;;;;;0.90;0.60;;;11.50;99.90;;;;;;5029716;28;20113;-62
2023/03/14 03:05:54;;;;;;;1.30;0.50;;;11.40;99.90;;;;;;5028937;28;20296;-63
2023/03/14 03:08:21;;;;;;;3.35;0.70;;;11.40;99.90;;;;;;5027818;28;20283;-62
2023/03/14 03:10:47;;;;;;;1.17;0.68;;;11.30;99.90;;;;;;5026692;28;20025;-62
2023/03/14 03:13:13;;;;;;;5.82;0.95;;;11.20;99.90;;;;;;5028129;28;20065;-63
2023/03/14 03:15:40;;;;;;;1.30;0.50;;;11.10;99.90;;;;;;5025984;28;20544;-62
2023/03/14 03:18:05;;;;;;;4.38;0.70;;;11.20;99.90;;;;;;5029848;28;20026;-62
2023/03/14 03:20:31;;;;;;;2.27;0.70;;;11.10;99.90;;;;;;5029838;28;20038;-62
2023/03/14 03:22:59;;;;;;;2.00;0.50;;;11.10;99.90;;;;;;5026216;28;20029;-64
2023/03/14 03:25:24;;;;;;;2.67;1.45;;;11.10;99.90;;;;;;5029511;28;20064;-64
2023/03/14 03:27:50;;;;;;;0.87;0.50;;;11.10;99.90;;;;;;5030810;28;20053;-64
2023/03/14 03:30:16;;;;;;;1.90;0.60;;;11.20;99.90;;;;;;5028420;28;20030;-65
2023/03/14 03:32:41;;;;;;;2.33;0.50;;;11.10;99.90;;;;;;5026324;28;20041;-64
2023/03/14 03:35:07;;;;;;;3.30;0.90;;;11.20;99.90;;;;;;5029123;28;20061;-62
2023/03/14 03:37:34;;;;;;;3.33;0.68;;;11.30;99.90;;;;;;5028591;28;20049;-64
2023/03/14 03:40:00;;;;;;;4.60;0.70;;;11.30;99.90;;;;;;5026224;28;20068;-63
2023/03/14 03:42:29;;;;;;;1.98;0.70;;;11.20;99.90;;;;;;5026903;28;20382;-64
2023/03/14 03:44:54;;;;;;;2.13;0.52;;;11.20;99.90;;;;;;5028260;28;20030;-62
2023/03/14 03:47:20;;;;;;;1.33;0.47;;;11.20;99.90;;;;;;5021243;28;20060;-65
2023/03/14 03:49:45;;;;;;;1.17;0.50;;;11.30;99.90;;;;;;5024988;28;20028;-64
2023/03/14 03:52:11;;;;;;;3.20;0.60;;;11.40;99.90;;;;;;5025945;28;20041;-65
2023/03/14 03:54:37;;;;;;;1.13;0.53;;;11.40;99.90;;;;;;5028027;28;20132;-65
2023/03/14 03:57:03;;;;;;;2.13;0.50;;;11.40;99.90;;;;;;5028161;28;20045;-64
2023/03/14 03:59:29;;;;;;;5.03;0.82;;;11.30;99.90;;;;;;5026708;28;20026;-63
2023/03/14 04:01:54;;;;;;;4.03;0.57;;;11.30;99.90;;;;;;5030123;28;20041;-64
2023/03/14 04:04:20;;;;;;;0.70;0.70;;;11.30;99.90;;;;;;5028412;28;20030;-64
2023/03/14 04:06:45;;;;;;;5.03;1.73;;;11.30;99.90;;;;;;5029153;28;20567;-64
2023/03/14 04:09:12;;;;;;;1.90;0.70;;;11.30;99.90;;;;;;5029584;28;20037;-64
2023/03/14 04:11:37;;;;;;;1.48;0.98;;;11.30;99.90;;;;;;5028132;28;20038;-64
2023/03/14 04:14:04;;;;;;;3.63;0.60;;;11.30;99.90;;;;;;5029916;28;20029;-64
2023/03/14 04:16:31;;;;;;;;;;;11.30;99.90;;;;;;5028662;28;20045;-63
2023/03/14 04:18:57;;;;;;;1.27;0.80;;;11.30;99.90;;;;;;5028185;28;19962;-64
2023/03/14 04:21:23;;;;;;;3.00;0.88;;;11.30;99.90;;;;;;5030316;28;20276;-62
2023/03/14 04:23:49;;;;;;;0.90;0.52;;;11.20;99.90;;;;;;5028191;28;20030;-63
2023/03/14 04:26:15;;;;;;;6.37;0.70;;;11.20;99.90;;;;;;5026531;28;20033;-62
2023/03/14 04:28:40;;;;;;;5.47;0.50;;;11.20;99.90;;;;;;5027949;28;20544;-63
2023/03/14 04:31:15;;;;;;;0.47;0.40;;;11.20;99.90;;;;;;5028889;28;20037;-64
2023/03/14 04:33:41;;;;;;;1.85;0.50;;;11.30;99.90;;;;;;5029675;28;20486;-65
2023/03/14 04:36:08;;;;;;;1.70;0.63;;;11.30;99.90;;;;;;5028641;28;20029;-65
2023/03/14 04:38:34;;;;;;;2.42;1.08;;;11.30;99.90;;;;;;5027254;28;20055;-64
2023/03/14 04:41:00;;;;;;;4.35;0.70;;;11.30;99.90;;;;;;5028023;28;20073;-64
2023/03/14 04:43:26;;;;;;;4.13;0.70;;;11.20;99.90;;;;;;5034255;28;20171;-63
2023/03/14 04:45:56;;;;;;;0.88;0.50;;;11.30;99.90;;;;;;5029718;28;20342;-62
2023/03/14 04:48:22;;;;;;;2.58;0.73;;;11.30;99.90;;;;;;5032845;28;20065;-64
2023/03/14 04:50:48;;;;;;;1.02;0.47;;;11.30;99.90;;;;;;5032243;28;20433;-64
2023/03/14 04:53:15;;;;;;;4.50;0.52;;;11.30;99.90;;;;;;5036350;28;20461;-64
2023/03/14 04:55:41;;;;;;;;;;;11.30;99.90;;;;;;5029395;28;20070;-62
2023/03/14 04:58:06;;;;;;;3.75;0.98;;;11.20;99.90;;;;;;5026054;28;20312;-64
2023/03/14 05:00:32;;;;;;;1.33;0.70;;;11.20;99.90;;;;;;5026836;28;20033;-64
2023/03/14 05:02:57;;;;;;;2.67;0.90;;;11.20;99.90;;;;;;5027711;28;20124;-65
2023/03/14 05:05:23;;;;;;;2.37;0.43;;;11.20;99.90;;;;;;5026117;28;20037;-65
2023/03/14 05:07:49;;;;;;;5.60;0.50;;;11.20;99.90;;;;;;5026935;28;20116;-63
2023/03/14 05:10:14;;;;;;;1.47;0.50;;;11.10;99.90;;;;;;5036368;28;20362;-64
2023/03/14 05:12:40;;;;;;;3.93;0.67;;;11.10;99.90;;;;;;5030800;28;20068;-62
2023/03/14 05:15:06;;;;;;;0.50;0.40;;;11.10;99.90;;;;;;5029700;28;20037;-64
2023/03/14 05:17:35;;;;;;;0.80;0.40;;;11.10;99.90;;;;;;5029178;28;20049;-64
2023/03/14 05:20:01;;;;;;;4.05;0.98;;;11.00;99.90;;;;;;5029341;28;20041;-62
2023/03/14 05:22:26;;;;;;;1.30;0.50;;;11.00;99.90;;;;;;5030955;28;20095;-63
2023/03/14 05:24:56;;;;;;;4.60;0.70;;;11.00;99.90;;;;;;5030929;28;20617;-62
2023/03/14 05:27:22;;;;;;;2.88;0.57;;;10.90;99.90;;;;;;5028791;28;20033;-62
2023/03/14 05:29:48;;;;;;;0.38;0.38;;;11.00;99.90;;;;;;5027285;28;20033;-63
2023/03/14 05:32:13;;;;;;;2.22;0.60;;;11.00;99.90;;;;;;5029924;28;20041;-62
2023/03/14 05:34:39;;;;;;;2.80;0.93;;;11.00;99.90;;;;;;5030215;28;20464;-62
2023/03/14 05:37:05;;;;;;;1.57;0.40;;;11.00;99.90;;;;;;5028050;28;20554;-64
2023/03/14 05:39:30;;;;;;;3.00;0.67;;;11.00;99.90;;;;;;5027959;28;20031;-65
2023/03/14 05:41:56;;;;;;;1.80;0.70;;;10.90;99.90;;;;;;5028166;28;20045;-64
2023/03/14 05:44:22;;;;;;;2.37;0.53;;;10.80;99.90;;;;;;5026928;28;20453;-63
2023/03/14 05:46:47;;;;;;;4.03;0.70;;;10.80;99.90;;;;;;5028928;28;20064;-63
2023/03/14 05:49:13;;;;;;;4.50;0.80;;;10.70;99.90;;;;;;5027597;28;20064;-64
2023/03/14 05:51:38;;;;;;;0.33;0.33;;;10.70;99.90;;;;;;5029617;28;20231;-64
2023/03/14 05:54:04;;;;;;;1.50;0.60;;;10.70;99.90;;;;;;5027326;28;20675;-64
2023/03/14 05:56:30;;;;;;;3.30;0.53;;;10.70;99.90;;;;;;5028623;28;20041;-65
2023/03/14 05:58:55;;;;;;;2.20;0.60;;;10.60;99.90;;;;;;5031873;28;20116;-65
2023/03/14 06:01:21;;;;;;;3.73;0.70;;;10.70;99.90;;;;;;5026830;28;20033;-65
2023/03/14 06:03:46;;;;;;;2.50;0.83;;;10.70;99.90;;;;;;5028588;28;20444;-64
2023/03/14 06:06:12;;;;;;;4.67;0.67;;;10.80;99.90;;;;;;5026476;28;20037;-65
2023/03/14 06:08:38;;;;;;;0.97;0.63;;;10.80;99.90;;;;;;5026800;28;20484;-64
2023/03/14 06:11:04;;;;;;;1.13;0.60;;;10.80;99.90;;;;;;5030493;28;20552;-64
2023/03/14 06:13:30;;;;;;;5.72;0.88;;;10.70;99.90;;;;;;5027247;28;20083;-64
2023/03/14 06:15:55;;;;;;;2.63;0.50;;;10.80;99.90;;;;;;5028195;28;20920;-64
2023/03/14 06:18:21;;;;;;;1.77;0.70;;;10.80;99.90;;;;;;5025010;28;20025;-64
2023/03/14 06:20:47;;;;;;;1.70;0.60;;;10.80;99.90;;;;;;5029142;28;20033;-65
2023/03/14 06:23:12;;;;;;;2.27;0.70;;;10.90;99.90;;;;;;5025872;28;20030;-65
2023/03/14 06:25:38;;;;;;;4.73;0.90;;;10.90;99.90;;;;;;5030912;28;20068;-65
2023/03/14 06:28:04;;;;;;;2.00;0.68;;;10.90;99.90;;;;;;5030292;28;20029;-62
2023/03/14 06:30:29;;;;;;;3.53;0.83;;;10.90;99.90;;;;;;5026427;28;21403;-62
2023/03/14 06:32:55;;;;;;;1.27;0.60;;;10.90;99.90;;;;;;5024266;28;20576;-62
2023/03/14 06:35:22;;;;;;;1.83;0.50;;;11.00;99.90;;;;;;5028065;28;20121;-63
2023/03/14 06:37:47;;;;;;;1.65;0.75;;;11.00;99.90;;;;;;5027597;28;20366;-62
2023/03/14 06:40:17;;;;;;;3.67;0.90;;;10.90;99.90;;;;;;5024976;28;20466;-62
2023/03/14 06:42:47;;;;;;;2.30;1.67;;;10.90;99.90;;;;;;5024276;28;20033;-63
2023/03/14 06:45:13;;;;;;;1.35;0.70;;;10.90;99.90;;;;;;5024847;28;20021;-65
2023/03/14 06:47:39;;;;;;;;;;;10.90;99.90;;;;;;5028862;28;20033;-65
2023/03/14 06:50:06;;;;;;;3.90;0.70;;;10.90;99.90;;;;;;5014214;28;20027;-64
2023/03/14 06:52:32;;;;;;;2.58;0.85;;;10.90;99.90;;;;;;5028845;28;20048;-64
2023/03/14 06:54:57;;;;;;;1.73;0.90;;;10.80;99.90;;;;;;5026659;28;20034;-65
2023/03/14 06:57:23;;;;;;;2.77;0.90;;;10.80;99.90;;;;;;5024824;28;20120;-61
2023/03/14 06:59:49;;;;;;;6.07;0.77;;;10.80;99.90;;;;;;5022837;28;20730;-62
2023/03/14 07:02:14;;;;;;;4.00;0.90;;;10.70;99.90;;;;;;5024580;28;20044;-62
2023/03/14 07:04:40;;;;;;;5.40;1.07;;;10.60;99.90;;;;;;5023393;28;20026;-65
2023/03/14 07:07:06;;;;;;;4.87;0.70;;;10.60;99.90;;;;;;5024820;28;20064;-63
2023/03/14 07:09:33;;;;;;;4.65;1.15;;;10.60;99.90;;;;;;5027539;28;20040;-62
2023/03/14 07:11:58;;;;;;;3.42;0.80;;;10.60;99.90;;;;;;5028136;28;20125;-62
2023/03/14 07:14:24;;;;;;;3.03;1.33;;;10.60;99.90;;;;;;5026018;28;20101;-62
2023/03/14 07:16:49;;;;;;;1.37;1.00;;;10.60;99.90;;;;;;5028146;28;20425;-65
2023/03/14 07:19:15;;;;;;;1.23;0.60;;;10.50;99.90;;;;;;5026982;28;20030;-64
2023/03/14 07:21:41;;;;;;;6.40;0.73;;;10.50;99.90;;;;;;5022520;28;20568;-61
2023/03/14 07:24:06;;;;;;;2.40;0.60;;;10.40;99.90;;;;;;5025136;28;20460;-62
2023/03/14 07:26:32;;;;;;;2.53;0.90;;;10.40;99.90;;;;;;5027483;28;20030;-63
2023/03/14 07:28:58;;;;;;;4.43;0.80;;;10.40;99.90;;;;;;5027909;28;20025;-63
2023/03/14 07:31:23;;;;;;;2.70;0.83;;;10.40;99.90;;;;;;5031210;28;20075;-61
2023/03/14 07:33:49;;;;;;;3.03;0.80;;;10.30;99.90;;;;;;5029385;28;20480;-64
2023/03/14 07:36:15;;;;;;;5.23;0.77;;;10.30;99.90;;;;;;5033793;28;20045;-62
2023/03/14 07:38:41;;;;;;;3.95;1.00;;;10.30;99.90;;;;;;5030997;28;20553;-61
2023/03/14 07:41:07;;;;;;;4.37;1.50;;;10.30;99.90;;;;;;5030428;28;20116;-62
2023/03/14 07:43:33;;;;;;;4.80;1.00;;;10.30;99.90;;;;;;5030087;28;20632;-62
2023/03/14 07:45:59;;;;;;;5.28;1.10;;;10.30;99.90;;;;;;5030433;28;20084;-61
2023/03/14 07:48:26;;;;;;;4.55;1.15;;;10.30;99.90;;;;;;5028398;28;20029;-61
2023/03/14 07:50:53;;;;;;;4.63;1.08;;;10.30;99.90;;;;;;5028833;28;20033;-63
2023/03/14 07:53:19;;;;;;;;;;;10.20;99.90;;;;;;5029486;28;20029;-64
2023/03/14 07:55:45;;;;;;;2.60;1.20;;;10.20;99.90;;;;;;5027845;28;19917;-65
2023/03/14 07:58:11;;;;;;;3.70;1.23;;;10.20;99.90;;;;;;5029686;28;20029;-63
2023/03/14 08:00:36;;;;;;;3.92;0.90;;;10.30;99.90;;;;;;5028787;28;20125;-65
2023/03/14 08:03:02;;;;;;;2.90;1.07;;;10.20;99.90;;;;;;5029883;28;20097;-62
2023/03/14 08:05:27;;;;;;;6.50;1.03;;;10.30;99.90;;;;;;5029761;28;20083;-64
2023/03/14 08:07:53;;;;;;;4.87;1.10;;;10.40;99.90;;;;;;5032983;28;20033;-65
2023/03/14 08:10:22;;;;;;;2.67;1.10;;;10.30;99.90;;;;;;5028915;28;20076;-65
2023/03/14 08:12:54;;;;;;;5.97;1.55;;;10.40;99.90;;;;;;5026130;28;20025;-64
2023/03/14 08:15:19;;;;;;;5.82;1.10;;;10.40;99.90;;;;;;5028965;28;20228;-65
2023/03/14 08:17:45;;;;;;;8.63;1.60;;;10.40;99.90;;;;;;5032278;28;20105;-66
2023/03/14 08:20:12;;;;;;;3.67;1.50;;;10.50;99.90;;;;;;5028290;28;20057;-64
2023/03/14 08:22:38;;;;;;;3.58;0.93;;;10.50;99.90;;;;;;5028194;28;20558;-65
2023/03/14 08:25:04;;;;;;;8.60;1.15;;;10.40;99.90;;;;;;5023629;28;20018;-65
2023/03/14 08:27:30;;;;;;;7.22;1.30;;;10.50;99.90;;;;;;5028395;28;20064;-65
2023/03/14 08:29:55;;;;;;;1.73;1.00;;;10.50;99.90;;;;;;5033377;28;20528;-67
2023/03/14 08:32:23;;;;;;;2.47;1.20;;;10.60;99.90;;;;;;5028256;28;20025;-66
2023/03/14 08:34:49;;;;;;;4.43;1.70;;;10.60;99.90;;;;;;5029911;28;20049;-66
2023/03/14 08:37:14;;;;;;;3.73;1.00;;;10.50;99.90;;;;;;5029714;28;20069;-67
2023/03/14 08:39:40;;;;;;;4.67;1.20;;;10.60;99.90;;;;;;5028143;28;20375;-67
2023/03/14 08:42:05;;;;;;;3.73;0.60;;;10.60;99.90;;;;;;5033729;28;20032;-66
2023/03/14 08:44:31;;;;;;;2.83;0.87;;;10.70;99.90;;;;;;5027875;28;20384;-65
2023/03/14 08:46:56;;;;;;;2.90;1.10;;;10.80;99.90;;;;;;5024339;28;20029;-66
2023/03/14 08:49:22;;;;;;;3.33;0.80;;;10.90;99.90;;;;;;5027315;28;20029;-66
2023/03/14 08:51:48;;;;;;;1.17;0.77;;;11.00;99.90;;;;;;5025652;28;20029;-68
2023/03/14 08:54:13;;;;;;;2.03;0.83;;;11.00;99.90;;;;;;5027139;28;20037;-63
2023/03/14 08:56:39;;;;;;;8.57;1.07;;;11.10;99.90;;;;;;5029478;28;20136;-63
2023/03/14 08:59:05;;;;;;;3.28;1.33;;;11.10;99.90;;;;;;5026630;28;20069;-66
2023/03/14 09:01:31;;;;;;;2.55;0.95;;;11.10;99.90;;;;;;5027098;28;20450;-65
2023/03/14 09:03:57;;;;;;;2.73;0.87;;;11.00;99.90;;;;;;5027441;28;20041;-63
2023/03/14 09:06:22;;;;;;;7.63;1.53;;;11.00;99.90;;;;;;5021240;28;20108;-62
2023/03/14 09:08:48;;;;;;;3.97;1.20;;;11.10;99.90;;;;;;5026706;28;20420;-65
2023/03/14 09:11:14;;;;;;;4.03;1.10;;;11.00;99.90;;;;;;5033245;28;20417;-65
2023/03/14 09:13:40;;;;;;;3.10;1.20;;;11.10;99.90;;;;;;5030576;28;20041;-65
2023/03/14 09:16:07;;;;;;;7.07;0.90;;;11.00;99.90;;;;;;5030425;28;20045;-66
2023/03/14 09:18:32;;;;;;;;;;;11.00;99.90;;;;;;5026985;28;20037;-64
2023/03/14 09:20:58;;;;;;;1.63;0.95;;;11.10;99.90;;;;;;5027806;28;20448;-63
2023/03/14 09:23:23;;;;;;;3.43;0.80;;;11.10;99.90;;;;;;5022645;28;20029;-63
2023/03/14 09:25:53;;;;;;;4.90;0.93;;;11.10;99.90;;;;;;5028781;28;20060;-68
2023/03/14 09:28:19;;;;;;;6.05;0.70;;;11.10;99.90;;;;;;5023965;28;20060;-66
2023/03/14 09:30:44;;;;;;;2.00;0.80;;;11.10;99.90;;;;;;5031571;28;20041;-67
2023/03/14 09:33:10;;;;;;;1.60;0.77;;;11.10;99.90;;;;;;5027017;28;20041;-63
2023/03/14 09:35:35;;;;;;;1.97;0.80;;;11.10;99.90;;;;;;5028828;28;20036;-63
2023/03/14 09:38:01;;;;;;;2.80;0.83;;;11.20;99.90;;;;;;5027022;28;20038;-66
2023/03/14 09:40:33;;;;;;;4.03;1.40;;;11.20;99.90;;;;;;5033613;28;20087;-65
2023/03/14 09:42:59;;;;;;;6.45;0.88;;;11.20;99.90;;;;;;5030111;28;20130;-65
2023/03/14 09:45:47;;;;;;;2.93;1.07;;;11.30;99.90;;;;;;5027196;28;20532;-62
2023/03/14 09:48:18;;;;;;;4.55;0.82;;;11.40;99.90;;;;;;5029448;28;20060;-68
2023/03/14 09:50:54;;;;;;;4.28;1.00;;;11.40;99.90;;;;;;5023969;28;20033;-68
2023/03/14 09:53:37;;;;;;;9.77;1.75;;;11.60;99.90;;;;;;5028282;28;20087;-62
2023/03/14 09:56:04;;;;;;;5.13;1.08;;;11.70;99.90;;;;;;5025541;28;20195;-62
2023/03/14 09:58:30;;;;;;;5.32;1.50;;;11.80;99.90;;;;;;5029497;28;20413;-63
2023/03/14 10:00:58;;;;;;;6.32;1.33;;;11.80;99.90;;;;;;5029965;28;20082;-61
2023/03/14 10:03:33;;;;;;;6.10;1.20;;;11.70;99.90;;;;;;5028674;28;20041;-68
2023/03/14 10:05:59;;;;;;;5.05;1.52;;;11.60;99.90;;;;;;5028970;28;20030;-67
2023/03/14 10:08:25;;;;;;;9.15;1.70;;;11.50;99.90;;;;;;5030235;28;20489;-64
2023/03/14 10:10:51;;;;;;;4.47;1.33;;;11.50;99.90;;;;;;5027494;28;20672;-65
2023/03/14 10:13:25;;;;;;;4.13;1.10;;;11.30;99.90;;;;;;5026381;28;20116;-67
2023/03/14 10:15:59;;;;;;;2.22;0.73;;;10.90;99.90;;;;;;5022457;28;20076;-66
2023/03/14 10:18:28;;;;;;;4.13;1.13;;;10.60;99.90;;;;;;5027324;28;20009;-62
2023/03/14 10:21:28;;;;;;;1.00;0.40;;;10.40;99.90;;;;;;5026801;28;20040;-63
2023/03/14 10:23:54;;;;;;;1.90;0.70;;;10.40;99.90;;;;;;5023196;28;20039;-63
2023/03/14 10:26:33;;;;;;;0.53;0.43;;;10.30;99.90;;;;;;5025835;28;20365;-66
2023/03/14 10:29:09;;;;;;;3.53;0.70;;;10.40;99.90;;;;;;5023167;28;20513;-67
2023/03/14 10:31:51;;;;;;;1.95;0.52;;;10.50;99.90;;;;;;5024541;28;20029;-67
2023/03/14 10:34:25;;;;;;;5.03;0.77;;;10.70;99.90;;;;;;5025453;28;20030;-68
2023/03/14 10:37:05;;;;;;;2.10;0.70;;;10.80;99.90;;;;;;5021418;28;20413;-67
2023/03/14 10:39:50;;;;;;;3.50;1.10;;;10.90;99.90;;;;;;5024068;28;20026;-68
2023/03/14 10:42:23;;;;;;;1.83;0.70;;;10.90;99.90;;;;;;5024867;28;20029;-65
2023/03/14 10:44:55;;;;;;;2.67;0.90;;;10.90;99.90;;;;;;5025453;28;20079;-64
2023/03/14 10:47:24;;;;;;;2.05;0.90;;;10.90;99.90;;;;;;5023228;28;20040;-64
2023/03/14 10:49:50;;;;;;;2.50;0.70;;;10.80;99.90;;;;;;5020977;28;20324;-68
2023/03/14 10:52:22;;;;;;;1.73;0.80;;;10.90;99.90;;;;;;5027120;28;20055;-64
2023/03/14 10:55:01;;;;;;;1.33;0.60;;;11.00;99.90;;;;;;5027147;28;20284;-68
2023/03/14 10:57:27;;;;;;;6.03;0.75;;;11.00;99.90;;;;;;5023875;28;20472;-68
2023/03/14 10:59:54;;;;;;;6.67;0.80;;;11.20;99.90;;;;;;5024445;28;20029;-68
2023/03/14 11:02:28;;;;;;;5.13;0.77;;;11.40;99.90;;;;;;5022740;28;20034;-68
2023/03/14 11:05:32;;;;;;;3.63;1.35;;;11.60;99.90;;;;;;5032271;28;20113;-61
2023/03/14 11:08:11;;;;;;;4.95;1.02;;;11.70;99.90;;;;;;5028719;28;20036;-65
2023/03/14 11:10:42;;;;;;;2.25;0.85;;;11.70;99.90;;;;;;5032360;28;20029;-64
2023/03/14 11:13:35;;;;;;;2.08;0.90;;;11.70;99.90;;;;;;5031751;28;20044;-67
2023/03/14 11:16:21;;;;;;;4.50;0.85;;;11.90;99.90;;;;;;5033699;28;20106;-67
2023/03/14 11:19:14;;;;;;;2.33;0.95;;;11.80;99.90;;;;;;5030245;28;20059;-66
2023/03/14 11:22:07;;;;;;;4.13;1.10;;;12.10;99.90;;;;;;5030878;28;20579;-65
2023/03/14 11:24:41;;;;;;;2.60;1.13;;;12.40;99.90;;;;;;5032266;28;20041;-63
2023/03/14 11:27:15;;;;;;;3.33;1.33;;;12.50;99.90;;;;;;5032222;28;20029;-62
2023/03/14 11:30:03;;;;;;;2.78;0.70;;;12.40;99.90;;;;;;5031830;28;20414;-68
2023/03/14 11:32:43;;;;;;;2.22;0.70;;;12.50;99.90;;;;;;5030519;28;20037;-64
2023/03/14 11:35:22;;;;;;;2.50;0.90;;;12.60;99.90;;;;;;5029323;28;20025;-65
2023/03/14 11:38:00;;;;;;;1.77;0.85;;;12.70;99.90;;;;;;5026637;28;20092;-61
2023/03/14 11:40:27;;;;;;;3.08;1.00;;;12.70;99.90;;;;;;5033309;28;20021;-68
2023/03/14 11:43:15;;;;;;;2.50;0.82;;;13.00;99.90;;;;;;5027726;28;20103;-68
2023/03/14 11:45:42;;;;;;;6.75;1.63;;;13.10;99.90;;;;;;5027365;28;20045;-68
2023/03/14 11:48:25;;;;;;;3.85;1.40;;;13.00;99.90;;;;;;5031023;28;20033;-67
2023/03/14 11:50:54;;;;;;;4.97;1.15;;;12.90;99.90;;;;;;5030638;28;20032;-63
2023/03/14 11:53:39;;;;;;;5.50;1.33;;;12.90;99.90;;;;;;5027200;28;20332;-66
2023/03/14 11:56:15;;;;;;;1.75;0.80;;;13.00;99.90;;;;;;5028858;28;20079;-66
2023/03/14 11:58:55;;;;;;;6.40;1.60;;;13.00;99.90;;;;;;5035154;28;20017;-65
2023/03/14 12:01:27;;;;;;;3.63;0.85;;;12.90;99.90;;;;;;5029240;28;20693;-65
2023/03/14 12:04:05;;;;;;;3.80;1.13;;;12.40;99.90;;;;;;5032105;28;20040;-64
2023/03/14 12:06:51;;;;;;;5.25;0.90;;;12.60;99.90;;;;;;5033143;28;20025;-65
2023/03/14 12:09:20;;;;;;;4.07;1.48;;;12.90;99.90;;;;;;5032711;28;20033;-64
2023/03/14 12:11:56;;;;;;;4.55;1.52;;;13.30;99.90;;;;;;5030488;28;20429;-63
2023/03/14 12:14:29;;;;;;;4.05;0.88;;;13.60;99.90;;;;;;5029410;28;20021;-62
2023/03/14 12:17:04;;;;;;;6.70;1.33;;;13.70;99.90;;;;;;5028451;28;20049;-66
2023/03/14 12:19:33;;;;;;;4.32;1.42;;;13.30;99.90;;;;;;5021025;28;20073;-64
2023/03/14 12:22:20;;;;;;;6.28;1.25;;;13.30;99.90;;;;;;5026675;28;20410;-66
2023/03/14 12:24:51;;;;;;;3.10;1.00;;;13.20;99.90;;;;;;5029524;28;20516;-67
2023/03/14 12:27:53;;;;;;;2.20;0.82;;;13.40;99.90;;;;;;5028830;28;20037;-65
2023/03/14 12:30:27;;;;;;;2.97;0.90;;;13.10;99.90;;;;;;5027702;28;20504;-63
2023/03/14 12:33:17;;;;;;;4.07;1.10;;;13.30;99.90;;;;;;5027422;28;20041;-68
2023/03/14 12:35:44;;;;;;;6.85;1.23;;;13.70;99.90;;;;;;5028461;28;20037;-65
2023/03/14 12:38:30;;;;;;;;;;;13.70;99.90;;;;;;5023661;28;20022;-66
2023/03/14 12:41:19;;;;;;;8.73;1.77;;;13.90;99.90;;;;;;5023893;28;19909;-65
2023/03/14 12:43:45;;;;;;;3.85;0.93;;;13.70;99.90;;;;;;5026514;28;20402;-66
2023/03/14 12:46:17;;;;;;;3.90;0.85;;;13.50;99.90;;;;;;5027452;28;20056;-66
2023/03/14 12:48:46;;;;;;;6.05;1.35;;;13.50;99.20;;;;;;5026064;28;20033;-62
2023/03/14 12:51:17;;;;;;;7.28;0.93;;;13.10;99.90;;;;;;5027290;28;20029;-66
2023/03/14 12:54:02;;;;;;;2.78;1.05;;;12.90;99.90;;;;;;5025513;28;20037;-64
2023/03/14 12:56:36;;;;;;;5.03;0.77;;;13.30;99.90;;;;;;5024278;28;20033;-63